C6038 TJBQ-TJBQ
Flight info
| Callsign | C6038 |
|---|---|
| Flight time | 1h 14m |
| Altitude | 1000 |
| Route | MARITIME LAW ENFORCEMENT |
| Aircraft | H60/M-VGD/C |
Departure
| Time | 2026-04-26 17:56 |
|---|---|
| Airport | Rafael Hernández International Airport (TJBQ) |
Arrival
| Time | 2026-04-26 19:11 |
|---|---|
| Airport | Rafael Hernández International Airport (TJBQ) |
| Time | Latitude | Longitude | Altitude | Speed | Heading |
|---|---|---|---|---|---|
| 2026-04-26 17:32 | 18.49635 | -67.13052 | 220 ft | 0 kts | 106° |
| 2026-04-26 17:54 | 18.49635 | -67.13051 | 214 ft | 1 kts | 156° |
| 2026-04-26 17:54 | 18.49583 | -67.13059 | 218 ft | 9 kts | 247° |
| 2026-04-26 17:55 | 18.49579 | -67.13071 | 214 ft | 1 kts | 249° |
| 2026-04-26 17:55 | 18.49563 | -67.13128 | 224 ft | 19 kts | 257° |
| 2026-04-26 17:55 | 18.49501 | -67.13353 | 314 ft | 45 kts | 250° |
| 2026-04-26 17:55 | 18.49356 | -67.13797 | 516 ft | 83 kts | 247° |
| 2026-04-26 17:56 | 18.49257 | -67.14476 | 564 ft | 97 kts | 288° |
| 2026-04-26 17:56 | 18.50204 | -67.14871 | 891 ft | 101 kts | 43° |
| 2026-04-26 17:57 | 18.51297 | -67.13441 | 633 ft | 149 kts | 68° |
| 2026-04-26 17:57 | 18.51697 | -67.12408 | 552 ft | 156 kts | 78° |
| 2026-04-26 17:57 | 18.51987 | -67.11263 | 504 ft | 165 kts | 82° |
| 2026-04-26 17:57 | 18.52254 | -67.10099 | 511 ft | 164 kts | 76° |
| 2026-04-26 17:58 | 18.53184 | -67.06812 | 355 ft | 146 kts | 75° |
| 2026-04-26 17:59 | 18.53869 | -67.04513 | 464 ft | 180 kts | 73° |
| 2026-04-26 17:59 | 18.54309 | -67.03283 | 502 ft | 178 kts | 70° |
| 2026-04-26 17:59 | 18.54672 | -67.02071 | 595 ft | 165 kts | 82° |
| 2026-04-26 17:59 | 18.54824 | -67.00938 | 757 ft | 145 kts | 83° |
| 2026-04-26 18:00 | 18.55026 | -66.99880 | 618 ft | 153 kts | 78° |
| 2026-04-26 18:00 | 18.55322 | -66.98832 | 511 ft | 144 kts | 73° |
| 2026-04-26 18:00 | 18.55648 | -66.97834 | 427 ft | 144 kts | 74° |
| 2026-04-26 18:00 | 18.55931 | -66.96850 | 487 ft | 138 kts | 77° |
| 2026-04-26 18:01 | 18.56143 | -66.95880 | 530 ft | 135 kts | 77° |
| 2026-04-26 18:01 | 18.56344 | -66.94942 | 554 ft | 132 kts | 77° |
| 2026-04-26 18:01 | 18.56505 | -66.93995 | 566 ft | 131 kts | 76° |
| 2026-04-26 18:01 | 18.56671 | -66.92963 | 545 ft | 155 kts | 76° |
| 2026-04-26 18:02 | 18.56962 | -66.91807 | 556 ft | 170 kts | 70° |
| 2026-04-26 18:02 | 18.57090 | -66.91405 | 546 ft | 173 kts | 69° |
| 2026-04-26 18:02 | 18.57930 | -66.89444 | 549 ft | 177 kts | 59° |
| 2026-04-26 18:02 | 18.58584 | -66.88343 | 552 ft | 177 kts | 53° |
| 2026-04-26 18:03 | 18.59284 | -66.87352 | 511 ft | 149 kts | 49° |
| 2026-04-26 18:03 | 18.59791 | -66.86634 | 533 ft | 95 kts | 46° |
| 2026-04-26 18:03 | 18.60107 | -66.86189 | 516 ft | 61 kts | 36° |
| 2026-04-26 18:03 | 18.60321 | -66.85913 | 426 ft | 36 kts | 24° |
| 2026-04-26 18:04 | 18.60465 | -66.85688 | 386 ft | 45 kts | 35° |
| 2026-04-26 18:04 | 18.60753 | -66.85520 | 442 ft | 45 kts | 27° |
| 2026-04-26 18:04 | 18.61003 | -66.85366 | 527 ft | 40 kts | 36° |
| 2026-04-26 18:05 | 18.61461 | -66.85051 | 516 ft | 41 kts | 75° |
| 2026-04-26 18:05 | 18.61576 | -66.84824 | 514 ft | 34 kts | 127° |
| 2026-04-26 18:05 | 18.61455 | -66.84636 | 556 ft | 39 kts | 249° |
| 2026-04-26 18:05 | 18.61248 | -66.84705 | 598 ft | 36 kts | 309° |
| 2026-04-26 18:06 | 18.61385 | -66.85124 | 937 ft | 83 kts | 307° |
| 2026-04-26 18:06 | 18.61730 | -66.85734 | 977 ft | 107 kts | 306° |
| 2026-04-26 18:06 | 18.62175 | -66.86502 | 580 ft | 133 kts | 306° |
| 2026-04-26 18:06 | 18.62508 | -66.87065 | 432 ft | 138 kts | 306° |
| 2026-04-26 18:07 | 18.63158 | -66.88178 | 489 ft | 126 kts | 315° |
| 2026-04-26 18:07 | 18.63445 | -66.88681 | 359 ft | 112 kts | 332° |
| 2026-04-26 18:07 | 18.63863 | -66.89232 | 349 ft | 80 kts | 338° |
| 2026-04-26 18:07 | 18.64109 | -66.89449 | 404 ft | 58 kts | 358° |
| 2026-04-26 18:08 | 18.64494 | -66.89483 | 408 ft | 40 kts | 63° |
| 2026-04-26 18:08 | 18.64704 | -66.89241 | 447 ft | 46 kts | 96° |
| 2026-04-26 18:08 | 18.64722 | -66.88895 | 522 ft | 54 kts | 178° |
| 2026-04-26 18:08 | 18.64567 | -66.88704 | 371 ft | 15 kts | 259° |
| 2026-04-26 18:09 | 18.64466 | -66.88845 | 229 ft | 26 kts | 279° |
| 2026-04-26 18:09 | 18.64465 | -66.88987 | 213 ft | 17 kts | 308° |
| 2026-04-26 18:09 | 18.64504 | -66.89089 | 178 ft | 27 kts | 316° |
| 2026-04-26 18:09 | 18.64672 | -66.89280 | 213 ft | 47 kts | 316° |
| 2026-04-26 18:10 | 18.64895 | -66.89517 | 178 ft | 38 kts | 318° |
| 2026-04-26 18:10 | 18.65072 | -66.89649 | 113 ft | 22 kts | 318° |
| 2026-04-26 18:10 | 18.65145 | -66.89711 | 80 ft | 13 kts | 319° |
| 2026-04-26 18:10 | 18.65269 | -66.89801 | 112 ft | 29 kts | 319° |
| 2026-04-26 18:11 | 18.65438 | -66.89952 | 105 ft | 30 kts | 317° |
| 2026-04-26 18:11 | 18.65469 | -66.90055 | 69 ft | 9 kts | 335° |
| 2026-04-26 18:11 | 18.65601 | -66.90114 | 81 ft | 28 kts | 335° |
| 2026-04-26 18:11 | 18.65679 | -66.90194 | 111 ft | 13 kts | 333° |
| 2026-04-26 18:12 | 18.65881 | -66.90325 | 101 ft | 41 kts | 310° |
| 2026-04-26 18:12 | 18.66057 | -66.90455 | 79 ft | 23 kts | 310° |
| 2026-04-26 18:12 | 18.66089 | -66.90453 | 75 ft | 0 kts | 312° |
| 2026-04-26 18:12 | 18.66075 | -66.90468 | 110 ft | 6 kts | 313° |
| 2026-04-26 18:13 | 18.66142 | -66.90567 | 115 ft | 20 kts | 303° |
| 2026-04-26 18:13 | 18.66202 | -66.90700 | 124 ft | 20 kts | 294° |
| 2026-04-26 18:13 | 18.66250 | -66.90837 | 136 ft | 20 kts | 287° |
| 2026-04-26 18:13 | 18.66271 | -66.90932 | 141 ft | 20 kts | 281° |
| 2026-04-26 18:14 | 18.66304 | -66.91156 | 139 ft | 20 kts | 274° |
| 2026-04-26 18:14 | 18.66279 | -66.91321 | 138 ft | 20 kts | 236° |
| 2026-04-26 18:14 | 18.66186 | -66.91431 | 132 ft | 20 kts | 230° |
| 2026-04-26 18:14 | 18.66075 | -66.91516 | 128 ft | 20 kts | 212° |
| 2026-04-26 18:15 | 18.65951 | -66.91587 | 119 ft | 20 kts | 199° |
| 2026-04-26 18:15 | 18.65844 | -66.91621 | 90 ft | 10 kts | 177° |
| 2026-04-26 18:15 | 18.65774 | -66.91610 | 63 ft | 10 kts | 162° |
| 2026-04-26 18:15 | 18.65702 | -66.91583 | 88 ft | 20 kts | 156° |
| 2026-04-26 18:16 | 18.65576 | -66.91521 | 86 ft | 20 kts | 160° |
| 2026-04-26 18:16 | 18.65308 | -66.91453 | 114 ft | 20 kts | 149° |
| 2026-04-26 18:16 | 18.65197 | -66.91366 | 118 ft | 20 kts | 138° |
| 2026-04-26 18:17 | 18.65097 | -66.91264 | 122 ft | 20 kts | 137° |
| 2026-04-26 18:17 | 18.64990 | -66.91168 | 126 ft | 20 kts | 140° |
| 2026-04-26 18:17 | 18.64877 | -66.91082 | 129 ft | 20 kts | 144° |
| 2026-04-26 18:17 | 18.64762 | -66.90999 | 129 ft | 20 kts | 144° |
| 2026-04-26 18:18 | 18.64650 | -66.90912 | 128 ft | 20 kts | 140° |
| 2026-04-26 18:18 | 18.64545 | -66.90815 | 129 ft | 20 kts | 139° |
| 2026-04-26 18:18 | 18.64439 | -66.90719 | 129 ft | 20 kts | 140° |
| 2026-04-26 18:18 | 18.64323 | -66.90640 | 129 ft | 20 kts | 166° |
| 2026-04-26 18:19 | 18.64201 | -66.90583 | 130 ft | 20 kts | 135° |
| 2026-04-26 18:19 | 18.64094 | -66.90479 | 127 ft | 28 kts | 140° |
| 2026-04-26 18:19 | 18.63959 | -66.90346 | 128 ft | 20 kts | 136° |
| 2026-04-26 18:19 | 18.63850 | -66.90253 | 129 ft | 20 kts | 144° |
| 2026-04-26 18:20 | 18.63737 | -66.90168 | 130 ft | 20 kts | 144° |
| 2026-04-26 18:20 | 18.63627 | -66.90078 | 126 ft | 20 kts | 137° |
| 2026-04-26 18:20 | 18.63522 | -66.89981 | 126 ft | 20 kts | 143° |
| 2026-04-26 18:20 | 18.63445 | -66.89928 | 129 ft | 20 kts | 140° |
| 2026-04-26 18:21 | 18.63300 | -66.89805 | 129 ft | 20 kts | 141° |
| 2026-04-26 18:21 | 18.63208 | -66.89718 | 95 ft | 13 kts | 131° |
| 2026-04-26 18:21 | 18.63138 | -66.89633 | 100 ft | 17 kts | 134° |
| 2026-04-26 18:21 | 18.63007 | -66.89543 | 126 ft | 27 kts | 125° |
| 2026-04-26 18:22 | 18.62860 | -66.89445 | 113 ft | 20 kts | 127° |
| 2026-04-26 18:22 | 18.62792 | -66.89371 | 77 ft | 13 kts | 129° |
| 2026-04-26 18:22 | 18.62686 | -66.89271 | 81 ft | 31 kts | 134° |
| 2026-04-26 18:22 | 18.62510 | -66.89167 | 91 ft | 18 kts | 105° |
| 2026-04-26 18:23 | 18.62456 | -66.89070 | 79 ft | 21 kts | 113° |
| 2026-04-26 18:23 | 18.62390 | -66.88957 | 96 ft | 18 kts | 93° |
| 2026-04-26 18:23 | 18.62285 | -66.88826 | 116 ft | 24 kts | 74° |
| 2026-04-26 18:23 | 18.62221 | -66.88691 | 84 ft | 12 kts | 53° |
| 2026-04-26 18:24 | 18.62272 | -66.88583 | 64 ft | 16 kts | 40° |
| 2026-04-26 18:24 | 18.62331 | -66.88481 | 66 ft | 17 kts | 17° |
| 2026-04-26 18:24 | 18.62411 | -66.88363 | 76 ft | 21 kts | 355° |
| 2026-04-26 18:24 | 18.62494 | -66.88294 | 97 ft | 10 kts | 336° |
| 2026-04-26 18:25 | 18.62601 | -66.88227 | 90 ft | 24 kts | 6° |
| 2026-04-26 18:25 | 18.62764 | -66.88158 | 100 ft | 17 kts | 354° |
| 2026-04-26 18:25 | 18.62885 | -66.88130 | 63 ft | 21 kts | 356° |
| 2026-04-26 18:25 | 18.63021 | -66.88195 | 114 ft | 26 kts | 329° |
| 2026-04-26 18:26 | 18.63223 | -66.88213 | 206 ft | 27 kts | 325° |
| 2026-04-26 18:26 | 18.63425 | -66.88233 | 260 ft | 46 kts | 42° |
| 2026-04-26 18:26 | 18.63729 | -66.87999 | 252 ft | 44 kts | 188° |
| 2026-04-26 18:26 | 18.63630 | -66.87836 | 176 ft | 41 kts | 225° |
| 2026-04-26 18:27 | 18.63506 | -66.88068 | 94 ft | 32 kts | 292° |
| 2026-04-26 18:27 | 18.63550 | -66.88281 | 91 ft | 25 kts | 316° |
| 2026-04-26 18:27 | 18.63722 | -66.88424 | 76 ft | 36 kts | 317° |
| 2026-04-26 18:27 | 18.63897 | -66.88597 | 49 ft | 32 kts | 318° |
| 2026-04-26 18:28 | 18.64034 | -66.88711 | 67 ft | 32 kts | 320° |
| 2026-04-26 18:28 | 18.64213 | -66.88888 | 61 ft | 25 kts | 242° |
| 2026-04-26 18:28 | 18.64279 | -66.88962 | 104 ft | 11 kts | 298° |
| 2026-04-26 18:28 | 18.64430 | -66.89106 | 111 ft | 38 kts | 263° |
| 2026-04-26 18:29 | 18.64598 | -66.89230 | 93 ft | 17 kts | 247° |
| 2026-04-26 18:29 | 18.64689 | -66.89341 | 128 ft | 33 kts | 336° |
| 2026-04-26 18:29 | 18.64910 | -66.89430 | 180 ft | 32 kts | 114° |
| 2026-04-26 18:29 | 18.64970 | -66.89257 | 152 ft | 18 kts | 250° |
| 2026-04-26 18:30 | 18.64937 | -66.89252 | 152 ft | 17 kts | 291° |
| 2026-04-26 18:30 | 18.64909 | -66.89371 | 175 ft | 18 kts | 323° |
| 2026-04-26 18:30 | 18.65008 | -66.89542 | 216 ft | 42 kts | 326° |
| 2026-04-26 18:30 | 18.65269 | -66.89743 | 163 ft | 43 kts | 309° |
| 2026-04-26 18:31 | 18.65432 | -66.89873 | 75 ft | 16 kts | 279° |
| 2026-04-26 18:31 | 18.65515 | -66.89893 | 59 ft | 12 kts | 278° |
| 2026-04-26 18:31 | 18.65582 | -66.89954 | 74 ft | 11 kts | 300° |
| 2026-04-26 18:31 | 18.65651 | -66.90055 | 60 ft | 27 kts | 314° |
| 2026-04-26 18:32 | 18.65858 | -66.90209 | 54 ft | 44 kts | 206° |
| 2026-04-26 18:32 | 18.65998 | -66.90314 | 71 ft | 15 kts | 256° |
| 2026-04-26 18:32 | 18.66040 | -66.90358 | 68 ft | 7 kts | 295° |
| 2026-04-26 18:32 | 18.66095 | -66.90489 | 95 ft | 28 kts | 332° |
| 2026-04-26 18:33 | 18.66179 | -66.90670 | 54 ft | 19 kts | 316° |
| 2026-04-26 18:33 | 18.66234 | -66.90759 | 69 ft | 23 kts | 307° |
| 2026-04-26 18:33 | 18.66347 | -66.90962 | 104 ft | 39 kts | 251° |
| 2026-04-26 18:33 | 18.66632 | -66.91007 | 144 ft | 37 kts | 224° |
| 2026-04-26 18:34 | 18.66725 | -66.91009 | 133 ft | 22 kts | 210° |
| 2026-04-26 18:34 | 18.66577 | -66.91142 | 88 ft | 32 kts | 230° |
| 2026-04-26 18:34 | 18.66404 | -66.91291 | 52 ft | 28 kts | 236° |
| 2026-04-26 18:34 | 18.66247 | -66.91476 | 65 ft | 32 kts | 224° |
| 2026-04-26 18:35 | 18.66108 | -66.91582 | 52 ft | 24 kts | 206° |
| 2026-04-26 18:35 | 18.65971 | -66.91611 | 79 ft | 24 kts | 185° |
| 2026-04-26 18:35 | 18.65803 | -66.91603 | 105 ft | 27 kts | 166° |
| 2026-04-26 18:35 | 18.65714 | -66.91514 | 60 ft | 15 kts | 177° |
| 2026-04-26 18:36 | 18.65675 | -66.91556 | 99 ft | 36 kts | 314° |
| 2026-04-26 18:36 | 18.65820 | -66.91929 | 211 ft | 58 kts | 210° |
| 2026-04-26 18:36 | 18.65535 | -66.92126 | 184 ft | 66 kts | 152° |
| 2026-04-26 18:36 | 18.65211 | -66.91818 | 184 ft | 65 kts | 90° |
| 2026-04-26 18:37 | 18.65052 | -66.91437 | 67 ft | 39 kts | 66° |
| 2026-04-26 18:37 | 18.64997 | -66.91314 | 60 ft | 11 kts | 63° |
| 2026-04-26 18:37 | 18.64906 | -66.91214 | 69 ft | 17 kts | 38° |
| 2026-04-26 18:37 | 18.64796 | -66.91127 | 95 ft | 28 kts | 30° |
| 2026-04-26 18:38 | 18.64611 | -66.90989 | 143 ft | 48 kts | 113° |
| 2026-04-26 18:38 | 18.64309 | -66.90616 | 117 ft | 83 kts | 150° |
| 2026-04-26 18:38 | 18.63825 | -66.90229 | 67 ft | 87 kts | 195° |
| 2026-04-26 18:38 | 18.63317 | -66.90317 | 63 ft | 65 kts | 246° |
| 2026-04-26 18:39 | 18.63240 | -66.90701 | 53 ft | 51 kts | 312° |
| 2026-04-26 18:39 | 18.63520 | -66.90839 | 48 ft | 45 kts | 31° |
| 2026-04-26 18:39 | 18.63758 | -66.90688 | 45 ft | 41 kts | 57° |
| 2026-04-26 18:39 | 18.63803 | -66.90506 | 49 ft | 24 kts | 79° |
| 2026-04-26 18:40 | 18.63784 | -66.90322 | 62 ft | 29 kts | 103° |
| 2026-04-26 18:40 | 18.63696 | -66.90160 | 55 ft | 21 kts | 149° |
| 2026-04-26 18:40 | 18.63603 | -66.90023 | 104 ft | 23 kts | 150° |
| 2026-04-26 18:40 | 18.63490 | -66.89934 | 110 ft | 20 kts | 144° |
| 2026-04-26 18:41 | 18.63387 | -66.89835 | 113 ft | 20 kts | 133° |
| 2026-04-26 18:41 | 18.63288 | -66.89733 | 111 ft | 20 kts | 138° |
| 2026-04-26 18:41 | 18.63179 | -66.89641 | 111 ft | 20 kts | 142° |
| 2026-04-26 18:41 | 18.63067 | -66.89552 | 111 ft | 20 kts | 142° |
| 2026-04-26 18:42 | 18.62960 | -66.89458 | 111 ft | 20 kts | 143° |
| 2026-04-26 18:42 | 18.62844 | -66.89375 | 107 ft | 20 kts | 145° |
| 2026-04-26 18:42 | 18.62730 | -66.89289 | 102 ft | 20 kts | 142° |
| 2026-04-26 18:42 | 18.62606 | -66.89192 | 101 ft | 30 kts | 143° |
| 2026-04-26 18:43 | 18.62494 | -66.89082 | 100 ft | 20 kts | 116° |
| 2026-04-26 18:43 | 18.62430 | -66.88951 | 102 ft | 20 kts | 115° |
| 2026-04-26 18:43 | 18.62369 | -66.88819 | 101 ft | 20 kts | 115° |
| 2026-04-26 18:43 | 18.62337 | -66.88675 | 101 ft | 20 kts | 99° |
| 2026-04-26 18:44 | 18.62309 | -66.88517 | 136 ft | 33 kts | 106° |
| 2026-04-26 18:44 | 18.62213 | -66.88135 | 195 ft | 68 kts | 108° |
| 2026-04-26 18:44 | 18.62032 | -66.87614 | 218 ft | 79 kts | 110° |
| 2026-04-26 18:44 | 18.61858 | -66.87055 | 160 ft | 75 kts | 107° |
| 2026-04-26 18:45 | 18.61746 | -66.86622 | 166 ft | 48 kts | 107° |
| 2026-04-26 18:45 | 18.61694 | -66.86297 | 212 ft | 51 kts | 104° |
| 2026-04-26 18:45 | 18.61572 | -66.85850 | 261 ft | 75 kts | 104° |
| 2026-04-26 18:45 | 18.61432 | -66.85282 | 182 ft | 80 kts | 108° |
| 2026-04-26 18:46 | 18.61288 | -66.84826 | 147 ft | 48 kts | 111° |
| 2026-04-26 18:46 | 18.61212 | -66.84643 | 114 ft | 12 kts | 123° |
| 2026-04-26 18:46 | 18.61169 | -66.84590 | 132 ft | 8 kts | 127° |
| 2026-04-26 18:46 | 18.61125 | -66.84479 | 162 ft | 27 kts | 139° |
| 2026-04-26 18:47 | 18.61016 | -66.84348 | 181 ft | 12 kts | 164° |
| 2026-04-26 18:47 | 18.60939 | -66.84361 | 174 ft | 11 kts | 197° |
| 2026-04-26 18:47 | 18.60903 | -66.84384 | 203 ft | 12 kts | 218° |
| 2026-04-26 18:47 | 18.60860 | -66.84401 | 214 ft | 8 kts | 226° |
| 2026-04-26 18:48 | 18.60919 | -66.84418 | 228 ft | 7 kts | 207° |
| 2026-04-26 18:48 | 18.60858 | -66.84440 | 194 ft | 26 kts | 201° |
| 2026-04-26 18:48 | 18.60729 | -66.84444 | 112 ft | 24 kts | 283° |
| 2026-04-26 18:48 | 18.60678 | -66.84360 | 212 ft | 3 kts | 306° |
| 2026-04-26 18:49 | 18.60600 | -66.84316 | 193 ft | 10 kts | 304° |
| 2026-04-26 18:49 | 18.60606 | -66.84388 | 263 ft | 28 kts | 305° |
| 2026-04-26 18:49 | 18.60781 | -66.84629 | 390 ft | 47 kts | 320° |
| 2026-04-26 18:49 | 18.61139 | -66.84675 | 354 ft | 50 kts | 45° |
| 2026-04-26 18:50 | 18.61249 | -66.84396 | 313 ft | 42 kts | 149° |
| 2026-04-26 18:50 | 18.61120 | -66.84280 | 285 ft | 25 kts | 181° |
| 2026-04-26 18:50 | 18.61002 | -66.84335 | 238 ft | 4 kts | 203° |
| 2026-04-26 18:50 | 18.60976 | -66.84347 | 158 ft | 5 kts | 204° |
| 2026-04-26 18:51 | 18.60955 | -66.84362 | 160 ft | 10 kts | 219° |
| 2026-04-26 18:51 | 18.60922 | -66.84395 | 161 ft | 7 kts | 232° |
| 2026-04-26 18:51 | 18.60902 | -66.84421 | 203 ft | 7 kts | 232° |
| 2026-04-26 18:51 | 18.60957 | -66.84345 | 160 ft | 18 kts | 233° |
| 2026-04-26 18:52 | 18.60951 | -66.84354 | 161 ft | 10 kts | 232° |
| 2026-04-26 18:52 | 18.60919 | -66.84407 | 160 ft | 0 kts | 223° |
| 2026-04-26 18:52 | 18.60905 | -66.84420 | 160 ft | 1 kts | 223° |
| 2026-04-26 18:52 | 18.60904 | -66.84419 | 160 ft | 0 kts | 224° |
| 2026-04-26 18:53 | 18.60890 | -66.84435 | 177 ft | 14 kts | 225° |
| 2026-04-26 18:53 | 18.60719 | -66.84633 | 160 ft | 57 kts | 231° |
| 2026-04-26 18:53 | 18.60520 | -66.85221 | 180 ft | 124 kts | 269° |
| 2026-04-26 18:53 | 18.60607 | -66.86134 | 269 ft | 90 kts | 65° |
| 2026-04-26 18:54 | 18.60613 | -66.86861 | 436 ft | 136 kts | 323° |
| 2026-04-26 18:54 | 18.60351 | -66.87115 | -9 ft | 31 kts | 106° |
| 2026-04-26 18:54 | 18.60368 | -66.87112 | -9 ft | 0 kts | 326° |
| 2026-04-26 18:55 | 18.60283 | -66.87131 | -10 ft | 37 kts | 244° |
| 2026-04-26 18:55 | 18.60129 | -66.87132 | 119 ft | 42 kts | 100° |
| 2026-04-26 18:55 | 18.60008 | -66.87034 | 203 ft | 20 kts | 28° |
| 2026-04-26 18:55 | 18.60179 | -66.86811 | 189 ft | 48 kts | 65° |
| 2026-04-26 18:56 | 18.60332 | -66.86558 | 241 ft | 29 kts | 76° |
| 2026-04-26 18:56 | 18.60401 | -66.86313 | 192 ft | 36 kts | 68° |
| 2026-04-26 18:56 | 18.60590 | -66.86055 | 238 ft | 54 kts | 63° |
| 2026-04-26 18:56 | 18.60770 | -66.85675 | 277 ft | 63 kts | 70° |
| 2026-04-26 18:57 | 18.60884 | -66.85207 | 295 ft | 61 kts | 67° |
| 2026-04-26 18:57 | 18.60912 | -66.84972 | 303 ft | 36 kts | 64° |
| 2026-04-26 18:57 | 18.60888 | -66.84867 | 232 ft | 7 kts | 76° |
| 2026-04-26 18:57 | 18.60906 | -66.84886 | 239 ft | 2 kts | 74° |
| 2026-04-26 18:58 | 18.60909 | -66.84848 | 226 ft | 17 kts | 77° |
| 2026-04-26 18:58 | 18.61100 | -66.84811 | 230 ft | 28 kts | 112° |
| 2026-04-26 18:58 | 18.61294 | -66.84645 | 213 ft | 47 kts | 161° |
| 2026-04-26 18:58 | 18.61417 | -66.84339 | 256 ft | 42 kts | 198° |
| 2026-04-26 18:59 | 18.61299 | -66.84042 | 191 ft | 45 kts | 226° |
| 2026-04-26 18:59 | 18.61073 | -66.83870 | 212 ft | 39 kts | 245° |
| 2026-04-26 18:59 | 18.60828 | -66.83969 | 235 ft | 43 kts | 278° |
| 2026-04-26 18:59 | 18.60684 | -66.84227 | 297 ft | 27 kts | 295° |
| 2026-04-26 19:00 | 18.60697 | -66.84359 | 235 ft | 28 kts | 299° |
| 2026-04-26 19:00 | 18.60628 | -66.84465 | 320 ft | 24 kts | 282° |
| 2026-04-26 19:00 | 18.60644 | -66.84785 | 466 ft | 63 kts | 283° |
| 2026-04-26 19:00 | 18.60897 | -66.85229 | 584 ft | 80 kts | 313° |
| 2026-04-26 19:01 | 18.61363 | -66.85652 | 669 ft | 96 kts | 359° |
| 2026-04-26 19:01 | 18.61905 | -66.85697 | 714 ft | 63 kts | 118° |
| 2026-04-26 19:01 | 18.62006 | -66.85267 | 681 ft | 80 kts | 124° |
| 2026-04-26 19:01 | 18.61814 | -66.84598 | 641 ft | 104 kts | 148° |
| 2026-04-26 19:02 | 18.61379 | -66.83968 | 632 ft | 106 kts | 185° |
| 2026-04-26 19:02 | 18.60731 | -66.83625 | 546 ft | 112 kts | 212° |
| 2026-04-26 19:02 | 18.59923 | -66.83771 | 539 ft | 128 kts | 227° |
| 2026-04-26 19:02 | 18.59436 | -66.84139 | 650 ft | 131 kts | 239° |
| 2026-04-26 19:03 | 18.58822 | -66.85283 | 726 ft | 138 kts | 253° |
| 2026-04-26 19:03 | 18.58496 | -66.86221 | 819 ft | 134 kts | 255° |
| 2026-04-26 19:03 | 18.58152 | -66.87138 | 654 ft | 136 kts | 249° |
| 2026-04-26 19:03 | 18.57791 | -66.88010 | 560 ft | 116 kts | 249° |
| 2026-04-26 19:04 | 18.57453 | -66.88759 | 739 ft | 116 kts | 249° |
| 2026-04-26 19:04 | 18.57101 | -66.89543 | 725 ft | 121 kts | 248° |
| 2026-04-26 19:04 | 18.56774 | -66.90389 | 536 ft | 128 kts | 252° |
| 2026-04-26 19:04 | 18.56442 | -66.91246 | 640 ft | 125 kts | 255° |
| 2026-04-26 19:05 | 18.56025 | -66.92990 | 644 ft | 125 kts | 258° |
| 2026-04-26 19:05 | 18.55783 | -66.93870 | 685 ft | 125 kts | 258° |
| 2026-04-26 19:05 | 18.55553 | -66.94769 | 626 ft | 129 kts | 259° |
| 2026-04-26 19:06 | 18.55338 | -66.95643 | 636 ft | 115 kts | 258° |
| 2026-04-26 19:06 | 18.55124 | -66.96478 | 658 ft | 122 kts | 261° |
| 2026-04-26 19:06 | 18.54898 | -66.97355 | 634 ft | 125 kts | 258° |
| 2026-04-26 19:06 | 18.54664 | -66.98225 | 603 ft | 122 kts | 258° |
| 2026-04-26 19:07 | 18.54432 | -66.99075 | 616 ft | 118 kts | 257° |
| 2026-04-26 19:07 | 18.54232 | -66.99874 | 594 ft | 110 kts | 262° |
| 2026-04-26 19:07 | 18.54008 | -67.00656 | 679 ft | 113 kts | 254° |
| 2026-04-26 19:07 | 18.53663 | -67.01469 | 777 ft | 130 kts | 248° |
| 2026-04-26 19:08 | 18.53330 | -67.02417 | 508 ft | 144 kts | 263° |
| 2026-04-26 19:08 | 18.53131 | -67.03428 | 510 ft | 144 kts | 263° |
| 2026-04-26 19:08 | 18.52829 | -67.04455 | 545 ft | 147 kts | 258° |
| 2026-04-26 19:08 | 18.52543 | -67.05479 | 643 ft | 145 kts | 260° |
| 2026-04-26 19:09 | 18.52255 | -67.06511 | 677 ft | 150 kts | 259° |
| 2026-04-26 19:09 | 18.51925 | -67.07532 | 695 ft | 146 kts | 253° |
| 2026-04-26 19:09 | 18.51466 | -67.08500 | 568 ft | 151 kts | 248° |
| 2026-04-26 19:09 | 18.50937 | -67.09424 | 672 ft | 140 kts | 246° |
| 2026-04-26 19:10 | 18.50465 | -67.10202 | 584 ft | 105 kts | 250° |
| 2026-04-26 19:10 | 18.50232 | -67.10802 | 491 ft | 79 kts | 259° |
| 2026-04-26 19:10 | 18.50094 | -67.11298 | 466 ft | 65 kts | 259° |
| 2026-04-26 19:10 | 18.49954 | -67.11768 | 429 ft | 71 kts | 256° |
| 2026-04-26 19:11 | 18.49817 | -67.12233 | 399 ft | 59 kts | 256° |
| 2026-04-26 19:11 | 18.49711 | -67.12582 | 336 ft | 37 kts | 258° |
| 2026-04-26 19:11 | 18.49666 | -67.12745 | 272 ft | 10 kts | 263° |
| 2026-04-26 19:11 | 18.49638 | -67.12812 | 243 ft | 8 kts | 266° |
| 2026-04-26 19:12 | 18.49633 | -67.12829 | 228 ft | 2 kts | 257° |
| 2026-04-26 19:12 | 18.49632 | -67.12841 | 215 ft | 1 kts | 258° |
| 2026-04-26 19:12 | 18.49623 | -67.12881 | 211 ft | 9 kts | 273° |
| 2026-04-26 19:12 | 18.49653 | -67.12900 | 217 ft | 6 kts | 358° |
| 2026-04-26 19:13 | 18.49696 | -67.12886 | 211 ft | 8 kts | 297° |
| 2026-04-26 19:13 | 18.49690 | -67.12931 | 219 ft | 4 kts | 179° |
| 2026-04-26 19:13 | 18.49687 | -67.12930 | 218 ft | 0 kts | 160° |